createdAt,value
2019-03-27T00:00:49.987Z,0.00
2019-03-27T00:01:49.970Z,0.00
2019-03-27T00:02:49.971Z,0.00
2019-03-27T00:03:49.951Z,0.00
2019-03-27T00:04:49.949Z,0.00
2019-03-27T00:05:49.947Z,0.00
2019-03-27T00:06:49.917Z,0.00
2019-03-27T00:07:49.911Z,0.00
2019-03-27T00:08:49.893Z,0.00
2019-03-27T00:09:49.882Z,0.00
2019-03-27T00:10:49.900Z,0.00
2019-03-27T00:11:49.866Z,0.00
2019-03-27T00:12:49.859Z,0.00
2019-03-27T00:13:49.838Z,0.00
2019-03-27T00:14:49.836Z,0.00
2019-03-27T00:15:49.841Z,0.00
2019-03-27T00:16:49.811Z,0.00
2019-03-27T00:17:49.807Z,0.00
2019-03-27T00:18:49.797Z,0.00
2019-03-27T00:19:49.772Z,0.00
2019-03-27T00:20:49.778Z,0.00
2019-03-27T00:21:49.748Z,0.00
2019-03-27T00:22:49.744Z,0.00
2019-03-27T00:23:49.730Z,0.00
2019-03-27T00:24:49.722Z,0.00
2019-03-27T00:25:49.717Z,0.00
2019-03-27T00:26:49.696Z,0.00
2019-03-27T00:27:49.684Z,0.00
2019-03-27T00:28:49.673Z,0.00
2019-03-27T00:29:49.666Z,0.00
2019-03-27T00:30:49.670Z,0.00
2019-03-27T00:31:49.635Z,0.00
2019-03-27T00:32:49.626Z,0.00
2019-03-27T00:33:49.624Z,0.00
2019-03-27T00:34:49.604Z,0.00
2019-03-27T00:35:49.624Z,0.00
2019-03-27T00:36:49.577Z,0.00
2019-03-27T00:37:49.586Z,0.00
2019-03-27T00:38:49.586Z,0.00
2019-03-27T00:39:49.547Z,0.00
2019-03-27T00:40:49.557Z,0.00
2019-03-27T00:41:49.526Z,0.00
2019-03-27T00:42:49.514Z,0.00
2019-03-27T00:43:49.496Z,0.00
2019-03-27T00:44:49.506Z,0.00
2019-03-27T00:45:49.500Z,0.00
2019-03-27T00:46:49.471Z,0.00
2019-03-27T00:47:49.464Z,0.00
2019-03-27T00:48:49.452Z,0.00
2019-03-27T00:49:49.436Z,0.00
2019-03-27T00:50:49.423Z,0.00
2019-03-27T00:51:49.426Z,0.00
2019-03-27T00:52:49.410Z,0.00
2019-03-27T00:53:49.395Z,0.00
2019-03-27T00:54:49.406Z,0.00
2019-03-27T00:55:49.379Z,0.00
2019-03-27T00:56:49.390Z,0.00
2019-03-27T00:57:49.368Z,0.00
2019-03-27T00:58:49.333Z,0.00
2019-03-27T00:59:49.336Z,0.00
2019-03-27T01:00:49.327Z,0.00
2019-03-27T01:01:49.332Z,0.00
2019-03-27T01:02:49.301Z,0.00
2019-03-27T01:03:49.286Z,0.00
2019-03-27T01:04:49.267Z,0.00
2019-03-27T01:05:49.258Z,0.00
2019-03-27T01:06:50.977Z,0.00
2019-03-27T01:07:49.235Z,0.00
2019-03-27T01:08:49.229Z,0.00
2019-03-27T01:09:49.215Z,0.00
2019-03-27T01:10:49.209Z,0.00
2019-03-27T01:11:49.215Z,0.00
2019-03-27T01:12:49.185Z,0.00
2019-03-27T01:13:49.169Z,0.00
2019-03-27T01:14:49.162Z,0.00
2019-03-27T01:15:49.147Z,0.00
2019-03-27T01:16:49.159Z,0.00
2019-03-27T01:17:49.136Z,0.00
2019-03-27T01:18:49.120Z,0.00
2019-03-27T01:19:49.111Z,0.00
2019-03-27T01:20:49.112Z,0.00
2019-03-27T01:21:49.099Z,0.00
2019-03-27T01:22:49.077Z,0.00
2019-03-27T01:23:49.060Z,0.00
2019-03-27T01:24:49.046Z,0.00
2019-03-27T01:25:49.044Z,0.00
2019-03-27T01:26:49.062Z,0.00
2019-03-27T01:27:49.019Z,0.00
2019-03-27T01:28:49.005Z,0.00
2019-03-27T01:29:48.983Z,0.00
2019-03-27T01:30:48.977Z,0.00
2019-03-27T01:31:49.017Z,0.00
2019-03-27T01:32:49.008Z,0.00
2019-03-27T01:33:48.945Z,0.00
2019-03-27T01:34:48.940Z,0.00
2019-03-27T01:35:48.932Z,0.00
2019-03-27T01:36:48.916Z,0.00
2019-03-27T01:37:48.925Z,0.00
2019-03-27T01:38:48.893Z,0.00
2019-03-27T01:39:48.872Z,0.00
2019-03-27T01:40:48.891Z,0.00
2019-03-27T01:41:48.864Z,0.00
2019-03-27T01:42:48.868Z,0.00
2019-03-27T01:43:48.830Z,0.00
2019-03-27T01:44:48.818Z,0.00
2019-03-27T01:45:53.176Z,0.00
2019-03-27T01:46:48.807Z,0.00
2019-03-27T01:47:48.811Z,0.00
2019-03-27T01:48:48.794Z,0.00
2019-03-27T01:49:48.777Z,0.00
2019-03-27T01:50:48.758Z,0.00
2019-03-27T01:51:48.757Z,0.00
2019-03-27T01:52:48.753Z,0.00
2019-03-27T01:53:48.735Z,0.00
2019-03-27T01:54:48.722Z,0.00
2019-03-27T01:55:48.710Z,0.00
2019-03-27T01:56:48.691Z,0.00
2019-03-27T01:57:48.704Z,0.00
2019-03-27T01:58:48.674Z,0.00
2019-03-27T01:59:48.658Z,0.00
2019-03-27T02:00:48.648Z,0.00
2019-03-27T02:01:48.628Z,0.00
2019-03-27T02:02:48.639Z,0.00
2019-03-27T02:03:48.614Z,0.00
2019-03-27T02:04:48.608Z,0.00
2019-03-27T02:05:48.594Z,0.00
2019-03-27T02:06:48.580Z,0.00
2019-03-27T02:07:48.584Z,0.00
2019-03-27T02:08:48.551Z,0.00
2019-03-27T02:09:48.586Z,0.00
2019-03-27T02:10:48.539Z,0.00
2019-03-27T02:11:48.520Z,0.00
2019-03-27T02:12:48.535Z,0.00
2019-03-27T02:13:48.499Z,0.00
2019-03-27T02:14:48.513Z,0.00
2019-03-27T02:15:48.490Z,0.00
2019-03-27T02:16:48.464Z,0.00
2019-03-27T02:17:48.456Z,0.00
2019-03-27T02:18:48.471Z,0.00
2019-03-27T02:19:48.440Z,0.00
2019-03-27T02:20:48.424Z,0.00
2019-03-27T02:21:48.409Z,0.00
2019-03-27T02:22:48.398Z,0.00
2019-03-27T02:23:48.411Z,0.00
2019-03-27T02:24:48.388Z,0.00
2019-03-27T02:25:48.362Z,0.00
2019-03-27T02:26:48.360Z,0.00
2019-03-27T02:27:48.341Z,0.00
2019-03-27T02:28:48.344Z,0.00
2019-03-27T02:29:48.311Z,0.00
2019-03-27T02:30:48.308Z,0.00
2019-03-27T02:31:48.303Z,0.00
2019-03-27T02:32:48.303Z,0.00
2019-03-27T02:33:48.399Z,0.00
2019-03-27T02:34:48.313Z,0.00
2019-03-27T02:35:48.255Z,0.00
2019-03-27T02:36:48.245Z,0.00
2019-03-27T02:37:48.247Z,0.00
2019-03-27T02:38:48.243Z,0.00
2019-03-27T02:39:48.217Z,0.00
2019-03-27T02:40:48.199Z,0.00
2019-03-27T02:41:48.198Z,0.00
2019-03-27T02:42:48.172Z,0.00
2019-03-27T02:43:48.201Z,0.00
2019-03-27T02:44:48.177Z,0.00
2019-03-27T02:45:48.178Z,0.00
2019-03-27T02:46:48.137Z,0.00
2019-03-27T02:47:48.134Z,0.00
2019-03-27T02:48:48.137Z,0.00
2019-03-27T02:49:48.113Z,0.00
2019-03-27T02:50:48.095Z,0.00
2019-03-27T02:51:48.097Z,0.00
2019-03-27T02:52:48.068Z,0.00
2019-03-27T02:53:48.069Z,0.00
2019-03-27T02:54:48.079Z,0.00
2019-03-27T02:55:48.054Z,0.00
2019-03-27T02:56:48.027Z,0.00
2019-03-27T02:57:48.009Z,0.00
2019-03-27T02:58:48.022Z,0.00
2019-03-27T02:59:48.003Z,0.00
2019-03-27T03:00:47.996Z,0.00
2019-03-27T03:01:48.382Z,0.00
2019-03-27T03:02:47.951Z,0.00
2019-03-27T03:03:47.994Z,0.00
2019-03-27T03:04:47.930Z,0.00
2019-03-27T03:05:47.919Z,0.00
2019-03-27T03:06:47.910Z,0.00
2019-03-27T03:07:47.921Z,0.00
2019-03-27T03:08:47.888Z,0.00
2019-03-27T03:09:47.888Z,0.00
2019-03-27T03:10:47.862Z,0.00
2019-03-27T03:11:47.845Z,0.00
2019-03-27T03:12:47.838Z,0.00
2019-03-27T03:13:47.841Z,0.00
2019-03-27T03:14:47.850Z,0.00
2019-03-27T03:15:47.801Z,0.00
2019-03-27T03:16:47.798Z,0.00
2019-03-27T03:17:47.786Z,0.00
2019-03-27T03:18:47.776Z,0.00
2019-03-27T03:19:47.792Z,0.00
2019-03-27T03:20:47.749Z,0.00
2019-03-27T03:21:47.736Z,0.00
2019-03-27T03:22:47.756Z,0.00
2019-03-27T03:23:47.716Z,0.00
2019-03-27T03:24:47.724Z,0.00
2019-03-27T03:25:47.696Z,0.00
2019-03-27T03:26:50.821Z,0.00
2019-03-27T03:27:47.668Z,0.00
2019-03-27T03:28:47.658Z,0.00
2019-03-27T03:29:47.661Z,0.00
2019-03-27T03:30:47.653Z,0.00
2019-03-27T03:31:47.644Z,0.00
2019-03-27T03:32:47.619Z,0.00
2019-03-27T03:33:47.611Z,0.00
2019-03-27T03:34:47.619Z,0.00
2019-03-27T03:35:47.593Z,0.00
2019-03-27T03:36:47.570Z,0.00
2019-03-27T03:37:47.578Z,0.00
2019-03-27T03:38:47.575Z,0.00
2019-03-27T03:39:47.555Z,0.00
2019-03-27T03:40:47.533Z,0.00
2019-03-27T03:41:47.517Z,0.00
2019-03-27T03:42:47.510Z,0.00
2019-03-27T03:43:47.495Z,0.00
2019-03-27T03:44:47.494Z,0.00
2019-03-27T03:45:47.483Z,0.00
2019-03-27T03:46:59.514Z,0.00
2019-03-27T03:47:48.456Z,0.00
2019-03-27T03:48:47.435Z,0.00
2019-03-27T03:49:47.434Z,0.00
2019-03-27T03:50:47.439Z,0.00
2019-03-27T03:51:47.407Z,0.00
2019-03-27T03:52:47.383Z,0.00
2019-03-27T03:53:47.386Z,0.00
2019-03-27T03:54:47.391Z,0.00
2019-03-27T03:55:47.366Z,0.00
2019-03-27T03:56:47.345Z,0.00
2019-03-27T03:57:47.339Z,0.00
2019-03-27T03:58:47.329Z,0.00
2019-03-27T03:59:47.345Z,0.00
2019-03-27T04:00:47.374Z,0.00
2019-03-27T04:01:47.301Z,0.00
2019-03-27T04:02:47.283Z,0.00
2019-03-27T04:03:47.266Z,0.00
2019-03-27T04:04:47.280Z,0.00
2019-03-27T04:05:47.246Z,0.00
2019-03-27T04:06:47.236Z,0.00
2019-03-27T04:07:47.234Z,0.00
2019-03-27T04:08:47.217Z,0.00
2019-03-27T04:09:47.234Z,0.00
2019-03-27T04:10:47.199Z,0.00
2019-03-27T04:11:47.188Z,0.00
2019-03-27T04:12:47.175Z,0.00
2019-03-27T04:13:47.159Z,0.00
2019-03-27T04:14:47.156Z,0.00
2019-03-27T04:15:47.157Z,0.00
2019-03-27T04:16:47.126Z,0.00
2019-03-27T04:17:47.121Z,0.00
2019-03-27T04:18:47.113Z,0.00
2019-03-27T04:19:47.103Z,0.00
2019-03-27T04:20:47.104Z,0.00
2019-03-27T04:21:47.190Z,0.00
2019-03-27T04:22:47.067Z,0.00
2019-03-27T04:23:47.056Z,0.00
2019-03-27T04:24:47.040Z,0.00
2019-03-27T04:26:08.345Z,0.00
2019-03-27T04:26:48.011Z,0.00
2019-03-27T04:27:47.016Z,0.00
2019-03-27T04:28:47.110Z,0.00
2019-03-27T04:29:46.984Z,0.00
2019-03-27T04:30:46.994Z,0.00
2019-03-27T04:31:46.950Z,4.00
2019-03-27T04:32:46.958Z,4.00
2019-03-27T04:33:46.935Z,0.00
2019-03-27T04:34:47.517Z,4.00
2019-03-27T04:35:46.946Z,0.00
2019-03-27T04:36:46.912Z,4.00
2019-03-27T04:37:46.889Z,4.00
2019-03-27T04:38:46.878Z,4.00
2019-03-27T04:39:46.870Z,4.00
2019-03-27T04:40:46.878Z,8.00
2019-03-27T04:41:46.848Z,8.00
2019-03-27T04:42:46.851Z,4.00
2019-03-27T04:43:46.823Z,4.00
2019-03-27T04:44:46.820Z,8.00
2019-03-27T04:45:46.812Z,8.00
2019-03-27T04:46:46.790Z,12.00
2019-03-27T04:47:46.777Z,12.00
2019-03-27T04:48:46.771Z,12.00
2019-03-27T04:49:46.759Z,16.00
2019-03-27T04:50:46.762Z,20.00
2019-03-27T04:51:46.741Z,20.00
2019-03-27T04:52:46.724Z,20.00
2019-03-27T04:53:46.816Z,20.00
2019-03-27T04:54:46.705Z,20.00
2019-03-27T04:55:46.723Z,28.00
2019-03-27T04:56:46.683Z,28.00
2019-03-27T04:57:46.670Z,32.00
2019-03-27T04:58:46.668Z,40.00
2019-03-27T04:59:46.655Z,40.00
2019-03-27T05:00:46.652Z,48.00
2019-03-27T05:01:46.628Z,44.00
2019-03-27T05:02:46.618Z,44.00
2019-03-27T05:03:46.607Z,56.00
2019-03-27T05:04:46.596Z,60.00
2019-03-27T05:05:46.606Z,60.00
2019-03-27T05:06:46.577Z,60.00
2019-03-27T05:07:46.552Z,64.00
2019-03-27T05:08:46.631Z,68.00
2019-03-27T05:09:46.541Z,68.00
2019-03-27T05:10:46.539Z,72.00
2019-03-27T05:11:46.509Z,76.00
2019-03-27T05:12:46.501Z,72.00
2019-03-27T05:13:46.497Z,68.00
2019-03-27T05:14:46.496Z,76.00
2019-03-27T05:15:46.493Z,80.00
2019-03-27T05:16:46.473Z,80.00
2019-03-27T05:17:46.718Z,84.00
2019-03-27T05:18:46.444Z,80.00
2019-03-27T05:19:46.427Z,84.00
2019-03-27T05:20:46.418Z,80.00
2019-03-27T05:21:46.419Z,84.00
2019-03-27T05:22:46.392Z,68.00
2019-03-27T05:23:46.397Z,68.00
2019-03-27T05:24:46.371Z,60.00
2019-03-27T05:25:46.365Z,68.00
2019-03-27T05:26:46.374Z,84.00
2019-03-27T05:27:46.343Z,72.00
2019-03-27T05:28:46.325Z,72.00
2019-03-27T05:29:46.325Z,92.00
2019-03-27T05:30:46.306Z,104.00
2019-03-27T05:31:46.317Z,104.00
2019-03-27T05:32:46.290Z,120.00
2019-03-27T05:33:46.262Z,128.00
2019-03-27T05:34:46.265Z,124.00
2019-03-27T05:35:46.245Z,128.00
2019-03-27T05:36:46.249Z,136.00
2019-03-27T05:37:46.228Z,148.00
2019-03-27T05:38:46.227Z,148.00
2019-03-27T05:39:46.214Z,156.00
2019-03-27T05:40:46.191Z,176.00
2019-03-27T05:41:46.220Z,200.00
2019-03-27T05:42:59.764Z,204.00
2019-03-27T05:43:47.159Z,216.00
2019-03-27T05:44:46.151Z,216.00
2019-03-27T05:45:46.150Z,212.00
2019-03-27T05:46:46.141Z,232.00
2019-03-27T05:47:58.946Z,232.00
2019-03-27T05:48:47.107Z,236.00
2019-03-27T05:49:46.099Z,208.00
2019-03-27T05:50:46.098Z,236.00
2019-03-27T05:51:46.101Z,244.00
2019-03-27T05:52:46.058Z,252.00
2019-03-27T05:53:46.070Z,232.00
2019-03-27T05:54:46.042Z,220.00
2019-03-27T05:55:46.040Z,236.00
2019-03-27T05:56:46.044Z,232.00
2019-03-27T05:57:46.004Z,212.00
2019-03-27T05:58:45.994Z,204.00
2019-03-27T05:59:45.974Z,216.00
2019-03-27T06:00:45.980Z,224.00
2019-03-27T06:01:45.970Z,236.00
2019-03-27T06:02:45.972Z,236.00
2019-03-27T06:03:45.940Z,252.00
2019-03-27T06:04:45.932Z,264.00
2019-03-27T06:05:45.910Z,264.00
2019-03-27T06:06:45.926Z,268.00
2019-03-27T06:07:45.913Z,256.00
2019-03-27T06:08:45.882Z,276.00
2019-03-27T06:09:45.874Z,252.00
2019-03-27T06:10:45.858Z,224.00
2019-03-27T06:11:45.855Z,196.00
2019-03-27T06:12:45.855Z,220.00
2019-03-27T06:13:45.839Z,220.00
2019-03-27T06:14:45.819Z,236.00
2019-03-27T06:15:45.807Z,256.00
2019-03-27T06:16:45.791Z,308.00
2019-03-27T06:17:45.796Z,276.00
2019-03-27T06:18:45.783Z,268.00
2019-03-27T06:19:45.846Z,304.00
2019-03-27T06:20:45.753Z,336.00
2019-03-27T06:21:45.763Z,316.00
2019-03-27T06:22:45.750Z,332.00
2019-03-27T06:23:45.712Z,288.00
2019-03-27T06:24:45.712Z,276.00
2019-03-27T06:25:45.698Z,292.00
2019-03-27T06:26:45.697Z,288.00
2019-03-27T06:27:45.696Z,300.00
2019-03-27T06:28:45.652Z,356.00
2019-03-27T06:29:45.657Z,372.00
2019-03-27T06:30:45.644Z,340.00
2019-03-27T06:31:45.628Z,316.00
2019-03-27T06:32:45.637Z,404.00
2019-03-27T06:33:45.609Z,356.00
2019-03-27T06:34:45.606Z,284.00
2019-03-27T06:35:45.609Z,300.00
2019-03-27T06:36:45.575Z,288.00
2019-03-27T06:37:45.569Z,392.00
2019-03-27T06:38:45.607Z,448.00
2019-03-27T06:39:45.543Z,452.00
2019-03-27T06:40:45.542Z,484.00
2019-03-27T06:41:45.530Z,532.00
2019-03-27T06:42:45.520Z,516.00
2019-03-27T06:43:45.501Z,428.00
2019-03-27T06:44:45.481Z,492.00
2019-03-27T06:45:45.475Z,588.00
2019-03-27T06:46:45.459Z,544.00
2019-03-27T06:47:45.484Z,644.00
2019-03-27T06:48:45.440Z,596.00
2019-03-27T06:49:45.451Z,592.00
2019-03-27T06:50:45.442Z,508.00
2019-03-27T06:51:45.422Z,528.00
2019-03-27T06:52:45.415Z,516.00
2019-03-27T06:53:45.401Z,484.00
2019-03-27T06:54:45.377Z,536.00
2019-03-27T06:55:45.372Z,556.00
2019-03-27T06:56:45.355Z,800.00
2019-03-27T06:57:45.341Z,612.00
2019-03-27T06:58:54.497Z,528.00
2019-03-27T06:59:46.321Z,540.00
2019-03-27T07:00:45.308Z,584.00
2019-03-27T07:01:45.301Z,656.00
2019-03-27T07:02:45.374Z,600.00
2019-03-27T07:03:45.281Z,516.00
2019-03-27T07:04:45.252Z,596.00
2019-03-27T07:05:45.256Z,684.00
2019-03-27T07:06:45.236Z,764.00
2019-03-27T07:07:45.229Z,880.00
2019-03-27T07:08:45.228Z,676.00
2019-03-27T07:09:45.228Z,652.00
2019-03-27T07:10:45.211Z,616.00
2019-03-27T07:11:45.227Z,692.00
2019-03-27T07:12:45.173Z,592.00
2019-03-27T07:13:45.176Z,532.00
2019-03-27T07:14:45.138Z,488.00
2019-03-27T07:15:45.139Z,544.00
2019-03-27T07:16:45.139Z,576.00
2019-03-27T07:17:45.116Z,572.00
2019-03-27T07:18:45.120Z,468.00
2019-03-27T07:19:45.099Z,564.00
2019-03-27T07:20:45.093Z,676.00
2019-03-27T07:21:45.079Z,868.00
2019-03-27T07:22:45.075Z,1020.00
2019-03-27T07:23:45.086Z,1128.00
2019-03-27T07:24:45.052Z,1164.00
2019-03-27T07:25:45.144Z,1092.00
2019-03-27T07:26:45.047Z,1044.00
2019-03-27T07:27:45.000Z,1056.00
2019-03-27T07:28:45.025Z,1180.00
2019-03-27T07:29:45.022Z,1192.00
2019-03-27T07:30:44.980Z,1240.00
2019-03-27T07:31:44.961Z,1236.00
2019-03-27T07:32:44.949Z,1296.00
2019-03-27T07:33:44.958Z,1212.00
2019-03-27T07:34:44.939Z,1336.00
2019-03-27T07:35:44.918Z,1360.00
2019-03-27T07:36:44.906Z,1380.00
2019-03-27T07:37:44.904Z,1372.00
2019-03-27T07:38:44.920Z,1356.00
2019-03-27T07:39:44.889Z,1340.00
2019-03-27T07:40:44.853Z,1328.00
2019-03-27T07:41:44.857Z,1396.00
2019-03-27T07:42:44.848Z,1464.00
2019-03-27T07:43:44.860Z,1524.00
2019-03-27T07:44:44.818Z,1516.00
2019-03-27T07:45:44.886Z,1484.00
2019-03-27T07:46:44.800Z,1472.00
2019-03-27T07:47:47.933Z,1476.00
2019-03-27T07:48:53.829Z,1476.00
2019-03-27T07:49:45.759Z,1464.00
2019-03-27T07:50:44.760Z,1416.00
2019-03-27T07:51:44.734Z,1348.00
2019-03-27T07:52:44.726Z,1248.00
2019-03-27T07:53:44.761Z,1180.00
2019-03-27T07:54:44.713Z,1164.00
2019-03-27T07:55:44.695Z,1188.00
2019-03-27T07:56:44.683Z,1264.00
2019-03-27T07:57:44.692Z,1316.00
2019-03-27T07:58:44.676Z,1280.00
2019-03-27T07:59:44.656Z,1168.00
2019-03-27T08:00:44.643Z,1144.00
2019-03-27T08:01:44.631Z,1256.00
2019-03-27T08:02:44.635Z,1320.00
2019-03-27T08:03:44.648Z,1420.00
2019-03-27T08:04:44.605Z,1520.00
2019-03-27T08:05:44.634Z,1568.00
2019-03-27T08:06:44.574Z,1584.00
2019-03-27T08:07:44.569Z,1516.00
2019-03-27T08:08:44.585Z,1468.00
2019-03-27T08:09:44.548Z,1352.00
2019-03-27T08:10:44.522Z,1292.00
2019-03-27T08:11:44.513Z,1312.00
2019-03-27T08:12:44.505Z,1320.00
2019-03-27T08:13:44.513Z,1380.00
2019-03-27T08:14:44.499Z,1436.00
2019-03-27T08:15:44.466Z,1544.00
2019-03-27T08:16:44.459Z,1632.00
2019-03-27T08:17:44.453Z,1688.00
2019-03-27T08:18:44.459Z,1720.00
2019-03-27T08:19:44.430Z,1716.00
2019-03-27T08:20:44.410Z,1660.00
2019-03-27T08:21:44.416Z,1688.00
2019-03-27T08:22:44.394Z,1720.00
2019-03-27T08:23:44.439Z,1720.00
2019-03-27T08:24:44.382Z,1760.00
2019-03-27T08:25:44.409Z,1704.00
2019-03-27T08:26:44.354Z,1376.00
2019-03-27T08:27:44.357Z,1196.00
2019-03-27T08:28:44.324Z,1352.00
2019-03-27T08:29:44.334Z,1216.00
2019-03-27T08:30:44.307Z,1120.00
2019-03-27T08:31:44.299Z,1012.00
2019-03-27T08:32:44.281Z,972.00
2019-03-27T08:33:44.268Z,1088.00
2019-03-27T08:34:44.292Z,1264.00
2019-03-27T08:35:44.257Z,1088.00
2019-03-27T08:36:44.260Z,932.00
2019-03-27T08:37:44.221Z,844.00
2019-03-27T08:38:44.221Z,852.00
2019-03-27T08:39:44.236Z,1080.00
2019-03-27T08:40:44.202Z,956.00
2019-03-27T08:41:44.178Z,908.00
2019-03-27T08:42:44.170Z,1000.00
2019-03-27T08:43:44.163Z,1080.00
2019-03-27T08:44:44.179Z,1104.00
2019-03-27T08:45:44.146Z,1320.00
2019-03-27T08:46:44.123Z,1400.00
2019-03-27T08:47:44.125Z,1132.00
2019-03-27T08:48:44.107Z,1176.00
2019-03-27T08:49:44.116Z,1240.00
2019-03-27T08:50:44.089Z,1216.00
2019-03-27T08:51:44.079Z,1196.00
2019-03-27T08:52:44.059Z,1220.00
2019-03-27T08:53:44.054Z,1524.00
2019-03-27T08:54:44.060Z,1612.00
2019-03-27T08:55:44.042Z,1460.00
2019-03-27T08:56:44.041Z,1384.00
2019-03-27T08:57:44.016Z,1400.00
2019-03-27T08:58:43.998Z,1224.00
2019-03-27T08:59:44.010Z,1104.00
2019-03-27T09:00:43.980Z,1328.00
2019-03-27T09:01:43.970Z,1820.00
2019-03-27T09:02:43.970Z,1804.00
2019-03-27T09:03:43.940Z,1520.00
2019-03-27T09:04:43.958Z,1536.00
2019-03-27T09:05:43.918Z,1400.00
2019-03-27T09:06:43.904Z,1436.00
2019-03-27T09:07:43.893Z,1232.00
2019-03-27T09:08:43.902Z,1100.00
2019-03-27T09:09:43.898Z,1300.00
2019-03-27T09:10:43.859Z,1572.00
2019-03-27T09:11:43.865Z,1616.00
2019-03-27T09:12:43.852Z,1672.00
2019-03-27T09:13:43.833Z,1816.00
2019-03-27T09:14:43.821Z,1772.00
2019-03-27T09:15:43.826Z,1784.00
2019-03-27T09:16:43.824Z,1824.00
2019-03-27T09:17:43.785Z,1824.00
2019-03-27T09:18:43.789Z,1924.00
2019-03-27T09:19:43.778Z,2020.00
2019-03-27T09:20:43.782Z,2144.00
2019-03-27T09:21:43.766Z,2032.00
2019-03-27T09:22:43.749Z,2052.00
2019-03-27T09:23:45.674Z,2132.00
2019-03-27T09:24:43.711Z,2348.00
2019-03-27T09:25:43.728Z,2040.00
2019-03-27T09:26:43.688Z,2180.00
2019-03-27T09:27:43.687Z,2792.00
2019-03-27T09:28:43.667Z,2196.00
2019-03-27T09:29:43.688Z,1744.00
2019-03-27T09:30:43.653Z,1724.00
2019-03-27T09:31:44.994Z,1692.00
2019-03-27T09:32:43.623Z,1712.00
2019-03-27T09:33:43.605Z,1860.00
2019-03-27T09:34:43.606Z,1572.00
2019-03-27T09:35:43.603Z,1444.00
2019-03-27T09:36:43.580Z,1560.00
2019-03-27T09:37:43.584Z,1496.00
2019-03-27T09:38:43.570Z,1276.00
2019-03-27T09:39:43.550Z,1448.00
2019-03-27T09:40:43.595Z,1704.00
2019-03-27T09:41:43.532Z,1772.00
2019-03-27T09:42:43.529Z,1728.00
2019-03-27T09:43:43.497Z,1724.00
2019-03-27T09:44:43.491Z,1644.00
2019-03-27T09:45:43.503Z,1356.00
2019-03-27T09:46:43.468Z,1436.00
2019-03-27T09:47:43.454Z,1524.00
2019-03-27T09:48:43.469Z,1244.00
2019-03-27T09:49:49.385Z,1128.00
2019-03-27T09:50:44.435Z,1192.00
2019-03-27T09:51:43.412Z,1060.00
2019-03-27T09:52:43.418Z,972.00
2019-03-27T09:53:43.386Z,1064.00
2019-03-27T09:54:43.370Z,1168.00
2019-03-27T09:55:43.376Z,1104.00
2019-03-27T09:56:43.355Z,984.00
2019-03-27T09:57:43.347Z,1140.00
2019-03-27T09:58:43.331Z,1232.00
2019-03-27T09:59:43.328Z,1168.00
2019-03-27T10:00:43.350Z,1440.00
2019-03-27T10:01:43.291Z,1388.00
2019-03-27T10:02:43.293Z,1412.00
2019-03-27T10:03:43.274Z,1436.00
2019-03-27T10:04:43.267Z,1756.00
2019-03-27T10:05:43.307Z,1604.00
2019-03-27T10:06:43.251Z,1528.00
2019-03-27T10:07:43.251Z,1724.00
2019-03-27T10:08:43.227Z,1468.00
2019-03-27T10:09:43.217Z,1416.00
2019-03-27T10:10:43.207Z,1328.00
2019-03-27T10:11:43.215Z,1256.00
2019-03-27T10:12:43.171Z,1136.00
2019-03-27T10:13:43.203Z,1024.00
2019-03-27T10:14:43.155Z,1108.00
2019-03-27T10:15:43.148Z,1016.00
2019-03-27T10:16:43.156Z,1016.00
2019-03-27T10:17:43.122Z,1064.00
2019-03-27T10:18:43.114Z,1260.00
2019-03-27T10:19:43.099Z,1200.00
2019-03-27T10:20:43.095Z,1184.00
2019-03-27T10:21:43.087Z,1448.00
2019-03-27T10:22:43.077Z,1956.00
2019-03-27T10:23:43.051Z,2064.00
2019-03-27T10:24:43.044Z,2036.00
2019-03-27T10:25:43.041Z,2120.00
2019-03-27T10:26:43.098Z,2280.00
2019-03-27T10:27:43.042Z,1888.00
2019-03-27T10:28:42.998Z,1612.00
2019-03-27T10:29:42.985Z,1588.00
2019-03-27T10:30:42.977Z,1536.00
2019-03-27T10:31:42.986Z,1428.00
2019-03-27T10:32:42.961Z,1480.00
2019-03-27T10:33:42.965Z,1456.00
2019-03-27T10:34:42.939Z,1444.00
2019-03-27T10:35:42.924Z,1628.00
2019-03-27T10:36:42.944Z,1756.00
2019-03-27T10:37:42.905Z,2052.00
2019-03-27T10:38:42.898Z,2508.00
2019-03-27T10:39:42.873Z,2516.00
2019-03-27T10:40:42.864Z,1784.00
2019-03-27T10:41:42.876Z,1656.00
2019-03-27T10:42:42.841Z,1848.00
2019-03-27T10:43:42.836Z,2056.00
2019-03-27T10:44:42.820Z,1856.00
2019-03-27T10:45:42.813Z,1744.00
2019-03-27T10:46:42.816Z,2232.00
2019-03-27T10:47:42.797Z,2000.00
2019-03-27T10:48:52.508Z,1968.00
2019-03-27T10:49:43.776Z,1784.00
2019-03-27T10:50:42.780Z,2148.00
2019-03-27T10:51:42.770Z,2068.00
2019-03-27T10:52:42.739Z,1756.00
2019-03-27T10:53:42.720Z,1552.00
2019-03-27T10:54:42.710Z,1836.00
2019-03-27T10:55:42.706Z,1864.00
2019-03-27T10:56:42.713Z,1928.00
2019-03-27T10:57:42.683Z,2480.00
2019-03-27T10:58:42.672Z,2140.00
2019-03-27T10:59:42.752Z,1596.00
2019-03-27T11:00:42.819Z,1800.00
2019-03-27T11:01:42.677Z,1592.00
2019-03-27T11:02:42.649Z,1512.00
2019-03-27T11:03:42.616Z,1680.00
2019-03-27T11:04:42.609Z,2204.00
2019-03-27T11:05:42.591Z,2200.00
2019-03-27T11:06:42.585Z,1800.00
2019-03-27T11:07:42.588Z,1464.00
2019-03-27T11:08:42.566Z,1836.00
2019-03-27T11:09:42.541Z,2288.00
2019-03-27T11:10:42.533Z,2356.00
2019-03-27T11:11:42.523Z,2488.00
2019-03-27T11:12:42.631Z,2208.00
2019-03-27T11:13:42.496Z,1948.00
2019-03-27T11:14:42.489Z,1720.00
2019-03-27T11:15:42.490Z,1500.00
2019-03-27T11:16:42.461Z,1336.00
2019-03-27T11:17:42.487Z,1216.00
2019-03-27T11:18:42.445Z,1320.00
2019-03-27T11:19:42.440Z,1268.00
2019-03-27T11:20:42.422Z,1336.00
2019-03-27T11:21:42.428Z,1216.00
2019-03-27T11:22:42.423Z,1176.00
2019-03-27T11:23:42.403Z,1268.00
2019-03-27T11:24:42.418Z,1676.00
2019-03-27T11:25:42.369Z,1720.00
2019-03-27T11:26:42.366Z,1644.00
2019-03-27T11:27:42.364Z,1652.00
2019-03-27T11:28:42.347Z,1644.00
2019-03-27T11:29:42.328Z,1672.00
2019-03-27T11:30:42.311Z,1964.00
2019-03-27T11:31:42.306Z,2488.00
2019-03-27T11:32:42.313Z,2200.00
2019-03-27T11:33:42.278Z,2132.00
2019-03-27T11:34:42.275Z,2132.00
2019-03-27T11:35:42.265Z,2284.00
2019-03-27T11:36:42.241Z,1712.00
2019-03-27T11:37:42.248Z,1568.00
2019-03-27T11:38:42.216Z,1468.00
2019-03-27T11:39:42.219Z,1192.00
2019-03-27T11:40:42.308Z,1008.00
2019-03-27T11:41:42.184Z,1000.00
2019-03-27T11:42:42.220Z,1104.00
2019-03-27T11:43:54.234Z,1200.00
2019-03-27T11:44:43.148Z,1400.00
2019-03-27T11:45:42.134Z,1792.00
2019-03-27T11:46:42.129Z,1896.00
2019-03-27T11:47:42.136Z,1992.00
2019-03-27T11:48:42.132Z,2032.00
2019-03-27T11:49:42.093Z,1712.00
2019-03-27T11:50:45.339Z,1768.00
2019-03-27T11:51:42.073Z,1572.00
2019-03-27T11:52:42.067Z,1800.00
2019-03-27T11:53:42.083Z,1484.00
2019-03-27T11:54:42.069Z,1692.00
2019-03-27T11:55:42.033Z,1688.00
2019-03-27T11:56:42.032Z,1308.00
2019-03-27T11:57:42.007Z,1276.00
2019-03-27T11:58:42.011Z,1292.00
2019-03-27T11:59:53.384Z,1352.00
2019-03-27T12:00:53.982Z,1388.00
2019-03-27T12:01:43.921Z,1188.00
2019-03-27T12:02:41.967Z,1212.00
2019-03-27T12:03:41.967Z,1312.00
2019-03-27T12:04:41.934Z,1580.00
2019-03-27T12:05:41.922Z,1524.00
2019-03-27T12:06:41.916Z,1604.00
2019-03-27T12:07:41.913Z,1632.00
2019-03-27T12:08:41.908Z,1752.00
2019-03-27T12:09:41.890Z,1680.00
2019-03-27T12:10:41.870Z,1600.00
2019-03-27T12:11:41.869Z,1808.00
2019-03-27T12:12:41.850Z,2156.00
2019-03-27T12:13:41.845Z,2336.00
2019-03-27T12:14:41.829Z,2348.00
2019-03-27T12:15:41.821Z,1940.00
2019-03-27T12:16:41.813Z,1576.00
2019-03-27T12:17:41.799Z,1360.00
2019-03-27T12:18:41.803Z,1492.00
2019-03-27T12:19:41.775Z,1408.00
2019-03-27T12:20:41.765Z,1292.00
2019-03-27T12:21:41.749Z,1404.00
2019-03-27T12:22:41.762Z,1444.00
2019-03-27T12:23:41.740Z,1224.00
2019-03-27T12:24:41.724Z,1660.00
2019-03-27T12:25:41.715Z,1280.00
2019-03-27T12:26:41.767Z,1144.00
2019-03-27T12:27:41.691Z,1172.00
2019-03-27T12:28:41.693Z,1364.00
2019-03-27T12:29:41.653Z,1928.00
2019-03-27T12:30:41.672Z,1652.00
2019-03-27T12:31:41.637Z,1740.00
2019-03-27T12:32:41.636Z,1524.00
2019-03-27T12:33:41.631Z,1492.00
2019-03-27T12:34:41.657Z,1548.00
2019-03-27T12:35:41.594Z,1644.00
2019-03-27T12:36:41.604Z,1396.00
2019-03-27T12:37:41.561Z,1484.00
2019-03-27T12:38:41.585Z,1288.00